createdAt,value
2017-04-05T00:00:03.026Z,99.99
2017-04-05T00:05:03.571Z,99.99
2017-04-05T00:10:03.412Z,99.99
2017-04-05T00:15:02.986Z,99.99
2017-04-05T00:20:03.645Z,99.99
2017-04-05T00:25:03.321Z,99.99
2017-04-05T00:30:02.958Z,99.99
2017-04-05T00:35:02.785Z,99.99
2017-04-05T00:40:03.427Z,99.99
2017-04-05T00:45:10.099Z,99.99
2017-04-05T00:50:03.723Z,99.99
2017-04-05T00:55:03.531Z,99.99
2017-04-05T01:00:03.377Z,99.99
2017-04-05T01:05:03.333Z,99.99
2017-04-05T01:10:02.977Z,99.99
2017-04-05T01:15:03.607Z,99.99
2017-04-05T01:20:03.283Z,99.99
2017-04-05T01:25:02.996Z,99.99
2017-04-05T01:30:02.884Z,99.99
2017-04-05T01:35:03.528Z,99.99
2017-04-05T01:40:03.245Z,99.99
2017-04-05T01:45:02.951Z,99.99
2017-04-05T01:50:03.712Z,99.99
2017-04-05T01:55:03.386Z,99.99
2017-04-05T02:00:03.048Z,99.99
2017-04-05T02:05:03.952Z,99.97
2017-04-05T02:10:03.732Z,99.87
2017-04-05T02:15:03.549Z,99.49
2017-04-05T02:20:03.207Z,99.21
2017-04-05T02:25:02.890Z,99.3
2017-04-05T02:30:03.660Z,98.87
2017-04-05T02:35:03.462Z,98.59
2017-04-05T02:40:03.156Z,98.02
2017-04-05T02:45:02.728Z,97.92
2017-04-05T02:50:03.412Z,97.64
2017-04-05T02:55:03.050Z,96.78
2017-04-05T03:00:02.774Z,96.59
2017-04-05T03:05:03.475Z,96.41
2017-04-05T03:10:03.176Z,96.78
2017-04-05T03:15:02.845Z,96.92
2017-04-05T03:20:03.628Z,97.21
2017-04-05T03:25:03.309Z,96.45
2017-04-05T03:30:02.912Z,96.17
2017-04-05T03:35:03.638Z,95.5
2017-04-05T03:40:03.428Z,93.89
2017-04-05T03:45:03.211Z,92.76
2017-04-05T03:50:02.952Z,91.71
2017-04-05T03:55:03.823Z,91.05
2017-04-05T04:00:03.723Z,90
2017-04-05T04:05:03.483Z,88.68
2017-04-05T04:10:03.188Z,88.1
2017-04-05T04:15:02.894Z,87.73
2017-04-05T04:20:03.641Z,87.35
2017-04-05T04:25:03.390Z,86.87
2017-04-05T04:30:03.185Z,86.4
2017-04-05T04:35:02.746Z,86.02
2017-04-05T04:40:03.493Z,85.55
2017-04-05T04:45:03.264Z,84.78
2017-04-05T04:50:02.990Z,84.31
2017-04-05T04:55:03.710Z,84.03
2017-04-05T05:00:03.536Z,83.74
2017-04-05T05:05:03.299Z,83.46
2017-04-05T05:10:02.987Z,83.27
2017-04-05T05:15:03.606Z,83.08
2017-04-05T05:20:03.347Z,82.65
2017-04-05T05:25:03.112Z,82.46
2017-04-05T05:30:02.728Z,82.08
2017-04-05T05:35:03.405Z,81.7
2017-04-05T05:40:03.179Z,81.51
2017-04-05T05:45:02.993Z,81.04
2017-04-05T05:50:02.756Z,80.37
2017-04-05T05:55:03.410Z,79.65
2017-04-05T06:00:03.146Z,79.36
2017-04-05T06:05:02.904Z,79.08
2017-04-05T06:10:03.475Z,78.8
2017-04-05T06:15:03.190Z,78.51
2017-04-05T06:20:02.841Z,78.32
2017-04-05T06:25:03.626Z,78.03
2017-04-05T06:30:03.380Z,77.94
2017-04-05T06:35:03.029Z,77.6
2017-04-05T06:40:02.774Z,77.31
2017-04-05T06:45:03.462Z,77.22
2017-04-05T06:50:03.138Z,76.84
2017-04-05T06:55:02.953Z,76.37
2017-04-05T07:00:03.548Z,76.03
2017-04-05T07:05:03.237Z,75.64
2017-04-05T07:10:03.078Z,75.84
2017-04-05T07:15:02.877Z,76.03
2017-04-05T07:20:03.698Z,76.06
2017-04-05T07:25:03.552Z,76.06
2017-04-05T07:30:03.244Z,76.48
2017-04-05T07:35:02.901Z,78.77
2017-04-05T07:40:03.630Z,81.9
2017-04-05T07:45:03.485Z,83.28
2017-04-05T07:50:03.296Z,86.55
2017-04-05T07:55:02.921Z,90.31
2017-04-05T08:00:02.837Z,97.08
2017-04-05T08:05:03.761Z,99.65
2017-04-05T08:10:03.755Z,99.99
2017-04-05T08:15:03.496Z,99.99
2017-04-05T08:20:03.236Z,99.99
2017-04-05T08:25:03.001Z,99.99
2017-04-05T08:30:02.870Z,99.99
2017-04-05T08:35:03.515Z,99.99
2017-04-05T08:40:03.238Z,99.99
2017-04-05T08:45:02.901Z,99.99
2017-04-05T08:50:03.534Z,99.99
2017-04-05T08:55:03.352Z,99.99
2017-04-05T09:00:03.151Z,99.99
2017-04-05T09:05:02.877Z,99.99
2017-04-05T09:10:03.858Z,99.99
2017-04-05T09:15:03.640Z,99.99
2017-04-05T09:20:03.395Z,99.99
2017-04-05T09:25:03.160Z,99.99
2017-04-05T09:30:02.782Z,98.86
2017-04-05T09:35:03.509Z,93.82
2017-04-05T09:40:03.517Z,92.77
2017-04-05T09:45:03.317Z,90.71
2017-04-05T09:50:03.118Z,91.82
2017-04-05T09:55:02.888Z,92.58
2017-04-05T10:00:02.789Z,89.41
2017-04-05T10:05:03.605Z,86.34
2017-04-05T10:10:03.532Z,86.49
2017-04-05T10:15:03.378Z,86.72
2017-04-05T10:20:03.158Z,84.8
2017-04-05T10:25:03.082Z,82.68
2017-04-05T10:30:03.026Z,81.53
2017-04-05T10:35:02.877Z,81.53
2017-04-05T10:40:03.154Z,77.78
2017-04-05T10:45:03.718Z,73.33
2017-04-05T10:50:03.628Z,68.42
2017-04-05T10:55:03.256Z,66.49
2017-04-05T11:00:03.203Z,65.01
2017-04-05T11:05:02.955Z,63.53
2017-04-05T11:10:02.868Z,60.09
2017-04-05T11:15:03.016Z,60.31
2017-04-05T11:20:03.649Z,59.58
2017-04-05T11:25:03.600Z,59.77
2017-04-05T11:30:02.781Z,59.32
2017-04-05T11:35:03.493Z,60.58
2017-04-05T11:40:03.385Z,62.83
2017-04-05T11:45:03.090Z,61.87
2017-04-05T11:50:02.737Z,61.74
2017-04-05T11:55:03.407Z,60.03
2017-04-05T12:00:03.287Z,62.61
2017-04-05T12:05:03.268Z,63.45
2017-04-05T12:10:03.317Z,64.69
2017-04-05T12:15:03.208Z,65.23
2017-04-05T12:20:03.005Z,65.08
2017-04-05T12:25:02.803Z,65.69
2017-04-05T12:30:03.704Z,65.72
2017-04-05T12:35:03.461Z,65.05
2017-04-05T12:40:03.518Z,63.73
2017-04-05T12:45:03.399Z,63.06
2017-04-05T12:50:03.330Z,63.76
2017-04-05T12:55:03.094Z,65.17
2017-04-05T13:00:02.990Z,65.91
2017-04-05T13:05:03.753Z,66.26
2017-04-05T13:10:02.802Z,66.74
2017-04-05T13:15:02.864Z,67.02
2017-04-05T13:20:03.410Z,67.16
2017-04-05T13:25:03.591Z,66
2017-04-05T13:30:03.281Z,64.69
2017-04-05T13:35:03.507Z,64.89
2017-04-05T13:40:02.820Z,64.89
2017-04-05T13:45:03.145Z,65.08
2017-04-05T13:50:02.873Z,65.69
2017-04-05T13:55:02.791Z,66.23
2017-04-05T14:00:02.997Z,66.49
2017-04-05T14:05:03.269Z,67.02
2017-04-05T14:10:03.181Z,68.08
2017-04-05T14:15:03.518Z,67.89
2017-04-05T14:20:03.549Z,68.33
2017-04-05T14:25:03.563Z,68.33
2017-04-05T14:30:02.898Z,68.81
2017-04-05T14:35:03.100Z,69.93
2017-04-05T14:40:03.630Z,70.92
2017-04-05T14:45:03.382Z,70.79
2017-04-05T14:50:03.025Z,71.17
2017-04-05T14:55:03.526Z,71.91
2017-04-05T15:00:03.483Z,72.67
2017-04-05T15:05:03.541Z,72.63
2017-04-05T15:10:03.309Z,72.73
2017-04-05T15:15:02.841Z,73.08
2017-04-05T15:20:03.161Z,73.8
2017-04-05T15:25:03.645Z,74.48
2017-04-05T15:30:03.626Z,75.43
2017-04-05T15:35:03.709Z,75.87
2017-04-05T15:40:03.564Z,76.5
2017-04-05T15:45:03.231Z,77.26
2017-04-05T15:50:03.024Z,78.13
2017-04-05T15:55:03.618Z,78.7
2017-04-05T16:00:03.205Z,79.56
2017-04-05T16:05:02.854Z,80.09
2017-04-05T16:10:03.667Z,80.76
2017-04-05T16:15:03.409Z,81.33
2017-04-05T16:20:03.035Z,81.77
2017-04-05T16:25:02.931Z,82.91
2017-04-05T16:30:03.217Z,83.77
2017-04-05T16:35:02.982Z,84.59
2017-04-05T16:40:03.730Z,85.64
2017-04-05T16:45:03.372Z,86.3
2017-04-05T16:50:03.106Z,86.98
2017-04-05T16:55:02.782Z,87.45
2017-04-05T17:00:03.464Z,88.69
2017-04-05T17:05:03.278Z,90.03
2017-04-05T17:10:02.930Z,90.22
2017-04-05T17:15:03.828Z,90.79
2017-04-05T17:20:03.523Z,91.13
2017-04-05T17:25:03.307Z,91.6
2017-04-05T17:30:02.971Z,91.13
2017-04-05T17:35:03.723Z,90.17
2017-04-05T17:40:03.439Z,89.79
2017-04-05T17:45:03.222Z,89.17
2017-04-05T17:50:02.785Z,89.36
2017-04-05T17:55:03.382Z,89.94
2017-04-05T18:00:03.228Z,90.7
2017-04-05T18:05:03.013Z,91.51
2017-04-05T18:10:02.887Z,93.13
2017-04-05T18:15:03.540Z,94.17
2017-04-05T18:20:03.261Z,95.03
2017-04-05T18:25:03.050Z,95.98
2017-04-05T18:30:02.881Z,96.65
2017-04-05T18:35:03.637Z,97.84
2017-04-05T18:40:03.484Z,98.22
2017-04-05T18:45:03.307Z,97.93
2017-04-05T18:50:02.999Z,97.55
2017-04-05T18:55:02.841Z,97.65
2017-04-05T19:00:03.669Z,97.55
2017-04-05T19:05:03.296Z,97.36
2017-04-05T19:10:03.043Z,98.03
2017-04-05T19:15:03.794Z,99.99
2017-04-05T19:20:03.596Z,99.99
2017-04-05T19:25:03.438Z,99.99
2017-04-05T19:30:03.134Z,99.99
2017-04-05T19:35:02.897Z,99.99
2017-04-05T19:40:03.766Z,99.99
2017-04-05T19:45:03.604Z,99.99
2017-04-05T19:50:03.459Z,99.99
2017-04-05T19:55:03.267Z,99.99
2017-04-05T20:00:02.923Z,99.99
2017-04-05T20:05:03.699Z,99.99
2017-04-05T20:10:03.357Z,99.99
2017-04-05T20:15:02.988Z,99.99
2017-04-05T20:20:02.900Z,99.99
2017-04-05T20:25:03.709Z,99.99
2017-04-05T20:30:03.401Z,99.99
2017-04-05T20:35:03.045Z,99.99
2017-04-05T20:40:03.732Z,99.99
2017-04-05T20:45:03.435Z,99.99
2017-04-05T20:50:03.236Z,99.99
2017-04-05T20:55:03.035Z,99.99
2017-04-05T21:00:03.822Z,99.99
2017-04-05T21:05:03.436Z,99.99
2017-04-05T21:10:03.156Z,99.99
2017-04-05T21:15:02.863Z,99.99
2017-04-05T21:20:03.658Z,99.99
2017-04-05T21:25:03.418Z,99.99
2017-04-05T21:30:03.337Z,99.99
2017-04-05T21:35:03.091Z,99.99
2017-04-05T21:40:02.872Z,99.99
2017-04-05T21:45:03.624Z,99.99
2017-04-05T21:50:03.361Z,99.99
2017-04-05T21:55:03.150Z,99.99
2017-04-05T22:00:02.792Z,99.99
2017-04-05T22:05:03.594Z,99.99
2017-04-05T22:10:03.292Z,99.99
2017-04-05T22:15:03.029Z,99.99
2017-04-05T22:20:03.997Z,99.99
2017-04-05T22:25:02.754Z,99.99
2017-04-05T22:30:03.523Z,99.99
2017-04-05T22:35:03.134Z,99.99
2017-04-05T22:40:02.840Z,99.99
2017-04-05T22:45:03.455Z,99.99
2017-04-05T22:50:03.046Z,99.99
2017-04-05T22:55:02.760Z,99.99
2017-04-05T23:00:03.580Z,99.99
2017-04-05T23:05:03.444Z,99.99
2017-04-05T23:10:03.185Z,99.99
2017-04-05T23:15:02.815Z,99.99
2017-04-05T23:20:03.474Z,99.99
2017-04-05T23:25:03.130Z,99.99
2017-04-05T23:30:02.870Z,99.99
2017-04-05T23:35:03.462Z,99.99
2017-04-05T23:40:03.360Z,99.99
2017-04-05T23:45:03.132Z,99.99
2017-04-05T23:50:02.935Z,99.99
2017-04-05T23:55:03.721Z,99.99
